Time;durP1;ratioP1;P1;durP2;ratioP2;P2;SDS_P1;SDS_P2;PMS_P1;PMS_P2;Temp;Humidity;BMP_temperature;BMP_pressure;BME280_temperature;BME280_humidity;BME280_pressure;Samples;Min_cycle;Max_cycle;Signal;HPM_P1;HPM_P2
2022/06/25 00:01:35;;;;;;;5.20;1.15;;;16.60;74.00;;;;;;4986391;28;20038;-82
2022/06/25 00:04:01;;;;;;;5.72;1.13;;;16.50;74.50;;;;;;4998288;28;20504;-82
2022/06/25 00:06:50;;;;;;;7.15;1.45;;;16.50;74.40;;;;;;4997356;28;20061;-83
2022/06/25 00:09:15;;;;;;;4.18;1.00;;;16.40;74.50;;;;;;4998650;28;20062;-82
2022/06/25 00:14:25;;;;;;;8.20;1.05;;;16.40;74.20;;;;;;4978939;28;20118;-82
2022/06/25 00:16:51;;;;;;;4.25;0.88;;;16.40;74.20;;;;;;4978832;28;20742;-82
2022/06/25 00:19:17;;;;;;;2.97;0.77;;;16.50;73.80;;;;;;4978831;28;20027;-82
2022/06/25 00:21:42;;;;;;;11.07;1.13;;;16.40;73.80;;;;;;4978987;28;20509;-82
2022/06/25 00:24:08;;;;;;;3.92;1.08;;;16.40;73.80;;;;;;4978838;28;20065;-82
2022/06/25 00:26:33;;;;;;;5.68;1.05;;;16.50;73.80;;;;;;4978752;28;20456;-82
2022/06/25 00:28:59;;;;;;;6.15;1.05;;;16.50;73.50;;;;;;4986467;28;20049;-82
2022/06/25 00:31:25;;;;;;;5.18;1.05;;;16.40;73.90;;;;;;4998010;28;20041;-82
2022/06/25 00:33:50;;;;;;;7.65;1.30;;;16.50;74.00;;;;;;4996184;28;20053;-82
2022/06/25 00:36:16;;;;;;;4.30;1.33;;;16.50;74.00;;;;;;4998132;28;20033;-82
2022/06/25 00:38:42;;;;;;;5.43;1.40;;;16.50;74.50;;;;;;4998000;28;20030;-82
2022/06/25 00:41:07;;;;;;;5.05;0.98;;;16.40;74.60;;;;;;4997902;28;20106;-81
2022/06/25 00:43:38;;;;;;;4.20;1.10;;;16.40;74.60;;;;;;4995796;28;20030;-82
2022/06/25 00:46:04;;;;;;;4.00;1.23;;;16.40;74.80;;;;;;5005369;28;20072;-82
2022/06/25 00:48:30;;;;;;;3.58;1.17;;;16.50;74.70;;;;;;4979516;28;20118;-82
2022/06/25 00:51:00;;;;;;;4.72;1.42;;;16.50;74.70;;;;;;4978104;28;20114;-82
2022/06/25 00:53:32;;;;;;;7.65;1.35;;;16.50;74.70;;;;;;4990905;28;20032;-82
2022/06/25 00:56:04;;;;;;;5.68;1.42;;;16.50;74.60;;;;;;4996257;28;20485;-82
2022/06/25 00:58:32;;;;;;;9.48;1.35;;;16.40;74.90;;;;;;4996350;28;20401;-82
2022/06/25 01:01:04;;;;;;;8.13;0.95;;;16.40;74.80;;;;;;4997513;28;20034;-82
2022/06/25 01:03:47;;;;;;;4.78;1.30;;;16.40;74.90;;;;;;4997457;28;20026;-82
2022/06/25 01:06:13;;;;;;;5.20;1.08;;;16.30;74.90;;;;;;4996218;28;20030;-82
2022/06/25 01:08:39;;;;;;;10.95;1.60;;;16.30;74.90;;;;;;4997343;28;20037;-82
2022/06/25 01:11:25;;;;;;;8.52;1.58;;;16.30;75.20;;;;;;4996323;28;20057;-82
2022/06/25 01:13:52;;;;;;;4.65;1.15;;;16.30;75.20;;;;;;4996099;28;20030;-83
2022/06/25 01:16:21;;;;;;;3.65;1.27;;;16.20;75.30;;;;;;4995982;28;20026;-83
2022/06/25 01:18:47;;;;;;;8.73;1.33;;;16.20;75.70;;;;;;4978518;28;20030;-82
2022/06/25 01:21:13;;;;;;;3.75;1.25;;;16.20;75.20;;;;;;4978100;28;20031;-82
2022/06/25 01:23:40;;;;;;;4.88;0.85;;;16.30;75.10;;;;;;4977708;28;20043;-81
2022/06/25 01:26:06;;;;;;;8.70;1.17;;;16.20;75.20;;;;;;4982413;28;20026;-81
2022/06/25 01:28:32;;;;;;;4.78;1.30;;;16.30;75.00;;;;;;4977430;28;20038;-81
2022/06/25 01:30:58;;;;;;;5.53;1.52;;;16.30;74.80;;;;;;4976196;28;20041;-81
2022/06/25 01:33:23;;;;;;;7.47;1.50;;;16.30;74.80;;;;;;4977013;28;20441;-81
2022/06/25 01:35:49;;;;;;;6.57;1.15;;;16.30;74.80;;;;;;4977420;28;20019;-81
2022/06/25 01:38:15;;;;;;;6.28;1.42;;;16.20;74.80;;;;;;4977375;28;20023;-81
2022/06/25 01:40:40;;;;;;;5.38;0.90;;;16.20;75.10;;;;;;4989753;28;20148;-81
2022/06/25 01:43:06;;;;;;;7.53;1.80;;;16.10;75.50;;;;;;4996619;28;20114;-81
2022/06/25 01:45:34;;;;;;;3.97;0.85;;;16.20;75.10;;;;;;4997832;28;20026;-81
2022/06/25 01:48:01;;;;;;;4.15;0.93;;;16.10;75.10;;;;;;4977279;28;20029;-81
2022/06/25 01:50:29;;;;;;;6.55;1.27;;;16.10;75.10;;;;;;4976750;28;20018;-81
2022/06/25 01:52:55;;;;;;;5.38;1.73;;;15.90;75.50;;;;;;4976932;28;20486;-80
2022/06/25 01:55:21;;;;;;;6.68;1.95;;;15.90;75.50;;;;;;4977180;28;20046;-80
2022/06/25 01:57:49;;;;;;;11.25;1.55;;;15.90;75.50;;;;;;4977006;28;20066;-81
2022/06/25 02:00:41;;;;;;;4.65;1.33;;;15.90;75.60;;;;;;4979296;28;20140;-80
2022/06/25 02:03:07;;;;;;;10.48;1.35;;;15.80;76.20;;;;;;4989799;28;20382;-80
2022/06/25 02:08:18;;;;;;;6.65;1.75;;;15.70;76.80;;;;;;4977162;28;20118;-81
2022/06/25 02:10:45;;;;;;;9.45;1.50;;;15.60;76.80;;;;;;4977317;28;20022;-80
2022/06/25 02:13:11;;;;;;;6.95;1.15;;;15.60;76.70;;;;;;4976798;28;20679;-81
2022/06/25 02:15:36;;;;;;;7.78;1.63;;;15.60;77.00;;;;;;4988710;28;20026;-81
2022/06/25 02:18:02;;;;;;;6.70;1.38;;;15.50;77.10;;;;;;4996124;28;20177;-80
2022/06/25 02:20:28;;;;;;;2.72;1.25;;;15.60;77.20;;;;;;4996120;28;20022;-80
2022/06/25 02:22:54;;;;;;;3.60;1.02;;;15.50;77.40;;;;;;4989031;28;20035;-80
2022/06/25 02:25:19;;;;;;;3.25;0.90;;;15.50;77.30;;;;;;4976130;28;20019;-80
2022/06/25 02:27:45;;;;;;;8.45;2.42;;;15.60;77.00;;;;;;4975405;28;20034;-80
2022/06/25 02:30:11;;;;;;;5.95;1.05;;;15.60;76.70;;;;;;4976695;28;20133;-80
2022/06/25 02:32:37;;;;;;;5.22;1.08;;;15.70;76.30;;;;;;4975596;28;20035;-81
2022/06/25 02:35:05;;;;;;;9.52;1.45;;;15.70;76.40;;;;;;4976496;28;20027;-81
2022/06/25 02:37:31;;;;;;;10.30;1.35;;;15.60;76.50;;;;;;4976695;28;20043;-81
2022/06/25 02:39:57;;;;;;;7.57;1.10;;;15.60;76.60;;;;;;4976376;28;20027;-80
2022/06/25 02:42:22;;;;;;;4.93;0.90;;;15.50;76.80;;;;;;4974471;28;20135;-81
2022/06/25 02:44:48;;;;;;;5.57;1.60;;;15.50;77.20;;;;;;4991749;28;20050;-81
2022/06/25 02:47:14;;;;;;;3.47;0.95;;;15.50;77.20;;;;;;5009924;28;20083;-81
2022/06/25 02:49:39;;;;;;;8.52;1.10;;;15.40;77.00;;;;;;5006406;28;20061;-80
2022/06/25 02:52:05;;;;;;;6.60;1.45;;;15.60;76.80;;;;;;4974848;28;20079;-80
2022/06/25 02:54:31;;;;;;;3.35;1.27;;;15.70;76.60;;;;;;4976453;28;20019;-80
2022/06/25 03:00:04;;;;;;;9.82;1.77;;;15.70;76.50;;;;;;4980194;28;20054;-80
2022/06/25 03:02:29;;;;;;;6.22;1.30;;;15.70;76.30;;;;;;4993317;28;20038;-81
2022/06/25 03:04:55;;;;;;;3.30;0.95;;;15.80;76.20;;;;;;4994304;28;20035;-80
2022/06/25 03:07:21;;;;;;;3.22;0.95;;;15.80;75.90;;;;;;4994396;28;20034;-80
2022/06/25 03:09:46;;;;;;;5.32;1.52;;;15.80;75.80;;;;;;4995595;28;20045;-80
2022/06/25 03:12:12;;;;;;;5.15;1.10;;;15.70;76.30;;;;;;4994292;28;20477;-80
2022/06/25 03:14:41;;;;;;;2.67;0.98;;;15.60;76.30;;;;;;4995427;28;20679;-81
2022/06/25 03:17:06;;;;;;;1.98;0.88;;;15.50;76.70;;;;;;4983658;28;20030;-80
2022/06/25 03:19:32;;;;;;;9.80;1.65;;;15.30;77.40;;;;;;4976278;28;20062;-80
2022/06/25 03:21:58;;;;;;;5.00;1.38;;;15.30;77.40;;;;;;4982636;28;20042;-80
2022/06/25 03:24:23;;;;;;;6.78;1.38;;;15.30;77.30;;;;;;4994370;28;20030;-80
2022/06/25 03:26:49;;;;;;;3.95;0.98;;;15.30;77.00;;;;;;4995309;28;20026;-80
2022/06/25 03:29:15;;;;;;;1.85;0.98;;;15.30;77.30;;;;;;4994230;28;20080;-80
2022/06/25 03:31:41;;;;;;;15.75;2.05;;;15.40;76.90;;;;;;4980350;28;20042;-80
2022/06/25 03:34:07;;;;;;;3.28;1.50;;;15.40;76.80;;;;;;4976132;28;20026;-80
2022/06/25 03:36:33;;;;;;;5.57;1.30;;;15.40;76.90;;;;;;4979741;28;20402;-80
2022/06/25 03:38:59;;;;;;;3.58;1.58;;;15.40;76.70;;;;;;4978472;28;20058;-80
2022/06/25 03:41:37;;;;;;;4.28;1.52;;;15.40;76.50;;;;;;4978479;28;20038;-80
2022/06/25 03:44:10;;;;;;;4.93;1.48;;;15.40;76.20;;;;;;4979739;28;20413;-80
2022/06/25 03:46:37;;;;;;;2.92;0.95;;;15.30;76.80;;;;;;4999754;28;20504;-80
2022/06/25 03:49:03;;;;;;;4.32;1.10;;;15.30;76.90;;;;;;4979509;28;20038;-80
2022/06/25 03:51:29;;;;;;;7.78;1.52;;;15.40;76.80;;;;;;4978951;28;20038;-80
2022/06/25 03:53:55;;;;;;;10.88;1.42;;;15.40;76.80;;;;;;4979268;28;20019;-80
2022/06/25 03:56:22;;;;;;;7.40;1.40;;;15.50;76.50;;;;;;4978424;28;20493;-80
2022/06/25 03:58:48;;;;;;;5.70;1.40;;;15.40;76.50;;;;;;4978232;28;20031;-80
2022/06/25 04:01:14;;;;;;;3.50;0.98;;;15.40;76.80;;;;;;4979361;28;20039;-80
2022/06/25 04:03:41;;;;;;;4.53;1.10;;;15.40;76.90;;;;;;4979206;28;20026;-80
2022/06/25 04:06:07;;;;;;;7.03;1.10;;;15.50;76.60;;;;;;4977913;28;20050;-80
2022/06/25 04:08:33;;;;;;;3.35;1.40;;;15.50;76.70;;;;;;4977701;28;20149;-80
2022/06/25 04:10:59;;;;;;;7.50;1.80;;;15.40;76.60;;;;;;4978033;28;20067;-80
2022/06/25 04:13:25;;;;;;;4.30;1.13;;;15.30;77.10;;;;;;4978881;28;20030;-80
2022/06/25 04:15:51;;;;;;;4.50;1.17;;;15.40;76.80;;;;;;4980486;28;20065;-80
2022/06/25 04:18:17;;;;;;;3.78;0.85;;;15.40;77.00;;;;;;4998404;28;20809;-80
2022/06/25 04:20:43;;;;;;;7.28;1.60;;;15.40;76.40;;;;;;4998339;28;20034;-79
2022/06/25 04:23:10;;;;;;;7.05;1.23;;;15.40;76.50;;;;;;4985745;28;20034;-80
2022/06/25 04:25:37;;;;;;;7.13;1.80;;;15.30;76.80;;;;;;4978723;28;20444;-80
2022/06/25 04:30:48;;;;;;;6.50;1.70;;;15.30;76.80;;;;;;4982920;28;20037;-80
2022/06/25 04:33:14;;;;;;;7.80;1.67;;;15.30;76.80;;;;;;4998169;28;20738;-80
2022/06/25 04:35:40;;;;;;;5.40;1.30;;;15.30;77.00;;;;;;4998125;28;20028;-80
2022/06/25 04:38:05;;;;;;;2.67;0.98;;;15.30;77.00;;;;;;4996759;28;20481;-80
2022/06/25 04:40:31;;;;;;;7.93;1.40;;;15.40;76.70;;;;;;4998077;28;20101;-80
2022/06/25 04:42:57;;;;;;;3.22;1.17;;;15.40;76.60;;;;;;4996384;28;20030;-80
2022/06/25 04:45:22;;;;;;;8.13;1.33;;;15.40;76.80;;;;;;4996847;28;20034;-80
2022/06/25 04:47:48;;;;;;;7.57;1.27;;;15.40;76.40;;;;;;5017167;28;20035;-80
2022/06/25 04:50:14;;;;;;;6.35;1.30;;;15.50;76.50;;;;;;5032824;28;20033;-80
2022/06/25 04:52:39;;;;;;;10.95;1.45;;;15.40;76.50;;;;;;4980400;28;20149;-80
2022/06/25 04:55:06;;;;;;;4.68;1.13;;;15.50;76.10;;;;;;4978290;28;20521;-80
2022/06/25 04:57:31;;;;;;;7.07;1.40;;;15.40;76.60;;;;;;4976866;28;20070;-80
2022/06/25 04:59:57;;;;;;;6.57;1.17;;;15.30;76.90;;;;;;4977736;28;20025;-80
2022/06/25 05:02:23;;;;;;;3.65;1.10;;;15.30;76.80;;;;;;4994374;28;20145;-80
2022/06/25 05:04:48;;;;;;;5.57;1.30;;;15.40;76.90;;;;;;4985730;28;20018;-80
2022/06/25 05:07:14;;;;;;;8.52;1.27;;;15.60;76.40;;;;;;4998614;28;20042;-80
2022/06/25 05:09:40;;;;;;;5.85;1.30;;;15.80;75.80;;;;;;4992871;28;21890;-80
2022/06/25 05:12:06;;;;;;;5.15;1.10;;;15.70;75.60;;;;;;4977676;28;20462;-80
2022/06/25 05:14:32;;;;;;;6.47;1.30;;;15.80;75.30;;;;;;4992764;28;20623;-80
2022/06/25 05:16:58;;;;;;;2.65;0.90;;;15.80;75.60;;;;;;4977941;28;20073;-80
2022/06/25 05:19:24;;;;;;;6.60;1.58;;;15.70;75.70;;;;;;4977623;28;20027;-80
2022/06/25 05:21:49;;;;;;;3.22;1.27;;;15.80;75.70;;;;;;4977212;28;20034;-83
2022/06/25 05:24:15;;;;;;;6.13;1.35;;;15.80;75.80;;;;;;4977641;28;20031;-78
2022/06/25 05:26:41;;;;;;;3.25;1.05;;;15.80;75.80;;;;;;4976584;28;20030;-79
2022/06/25 05:29:07;;;;;;;3.35;1.13;;;15.90;75.80;;;;;;4976213;28;20026;-79
2022/06/25 05:31:32;;;;;;;10.07;1.67;;;16.00;75.50;;;;;;4977611;28;20045;-78
2022/06/25 05:33:58;;;;;;;5.25;1.58;;;16.00;75.40;;;;;;4977376;28;20086;-78
2022/06/25 05:36:24;;;;;;;4.68;1.00;;;16.00;75.30;;;;;;4976076;28;20397;-78
2022/06/25 05:38:49;;;;;;;7.78;1.30;;;16.00;75.50;;;;;;4981027;28;20019;-81
2022/06/25 05:41:15;;;;;;;4.25;1.23;;;16.00;75.60;;;;;;4986857;28;20062;-80
2022/06/25 05:43:41;;;;;;;11.88;2.55;;;16.10;75.90;;;;;;4977110;28;20030;-80
2022/06/25 05:46:07;;;;;;;2.35;1.17;;;16.00;76.00;;;;;;4986853;28;20114;-77
2022/06/25 05:48:33;;;;;;;5.45;0.95;;;16.10;75.90;;;;;;4995171;28;20030;-76
2022/06/25 05:50:59;;;;;;;10.30;1.90;;;16.10;76.30;;;;;;4996676;28;20035;-77
2022/06/25 05:53:26;;;;;;;7.57;1.30;;;16.20;75.80;;;;;;4996442;28;20022;-77
2022/06/25 05:55:52;;;;;;;5.25;1.13;;;16.30;75.70;;;;;;4979928;28;20085;-77
2022/06/25 05:58:18;;;;;;;4.40;1.20;;;16.50;75.60;;;;;;4974299;28;20138;-78
2022/06/25 06:00:44;;;;;;;6.68;1.98;;;16.60;75.10;;;;;;4975812;28;20034;-80
2022/06/25 06:03:10;;;;;;;5.78;1.77;;;16.60;75.40;;;;;;4975944;28;20030;-80
2022/06/25 06:05:38;;;;;;;3.38;1.30;;;16.40;75.60;;;;;;4976831;28;20031;-77
2022/06/25 06:08:05;;;;;;;5.97;1.55;;;16.50;75.50;;;;;;4977013;28;20389;-80
2022/06/25 06:10:30;;;;;;;4.43;1.55;;;16.40;75.80;;;;;;4976704;28;20039;-79
2022/06/25 06:12:56;;;;;;;4.22;1.45;;;16.40;76.00;;;;;;4976466;28;20035;-80
2022/06/25 06:15:22;;;;;;;5.93;1.42;;;16.50;75.60;;;;;;4976319;28;20074;-78
2022/06/25 06:17:47;;;;;;;11.30;1.40;;;16.50;76.00;;;;;;4978344;28;20041;-78
2022/06/25 06:20:13;;;;;;;9.45;1.30;;;16.60;76.00;;;;;;4988534;28;20022;-78
2022/06/25 06:22:38;;;;;;;6.10;1.63;;;16.50;75.90;;;;;;4995969;28;20030;-78
2022/06/25 06:25:05;;;;;;;6.05;1.00;;;16.50;76.10;;;;;;5006743;28;20039;-78
2022/06/25 06:27:31;;;;;;;8.23;1.55;;;16.80;75.70;;;;;;4978346;28;20109;-78
2022/06/25 06:29:56;;;;;;;12.20;2.05;;;16.80;75.50;;;;;;4994780;28;20527;-78
2022/06/25 06:32:22;;;;;;;4.35;1.25;;;16.80;75.50;;;;;;4994905;28;20110;-78
2022/06/25 06:34:48;;;;;;;8.18;1.30;;;16.70;75.60;;;;;;4990567;28;20030;-78
2022/06/25 06:37:14;;;;;;;3.20;1.00;;;16.80;75.20;;;;;;4985825;28;20029;-78
2022/06/25 06:39:40;;;;;;;3.83;1.17;;;16.80;75.60;;;;;;4984957;28;20023;-78
2022/06/25 06:42:05;;;;;;;5.47;1.30;;;16.80;75.80;;;;;;4983825;28;20110;-78
2022/06/25 06:44:31;;;;;;;2.90;0.95;;;16.70;75.60;;;;;;4983460;28;20092;-78
2022/06/25 06:46:57;;;;;;;7.20;1.35;;;16.60;76.20;;;;;;4984429;28;20046;-78
2022/06/25 06:49:23;;;;;;;6.45;1.52;;;16.80;76.00;;;;;;4984710;28;20027;-78
2022/06/25 06:51:48;;;;;;;4.80;1.67;;;16.90;75.90;;;;;;4992324;28;20034;-79
2022/06/25 06:54:14;;;;;;;3.22;1.42;;;16.90;75.70;;;;;;4985879;28;20030;-80
2022/06/25 06:56:39;;;;;;;10.90;1.95;;;17.00;75.90;;;;;;4984076;28;20067;-79
2022/06/25 06:59:06;;;;;;;3.10;1.42;;;17.30;75.10;;;;;;4983806;28;20058;-79
2022/06/25 07:01:32;;;;;;;9.10;1.20;;;17.30;74.40;;;;;;4983339;28;20077;-79
2022/06/25 07:03:58;;;;;;;5.03;1.27;;;17.30;73.40;;;;;;4985794;28;20125;-80
2022/06/25 07:06:23;;;;;;;3.40;1.40;;;17.20;74.20;;;;;;4989667;28;20035;-78
2022/06/25 07:08:49;;;;;;;4.18;1.30;;;17.20;74.70;;;;;;4988741;28;20030;-80
2022/06/25 07:11:30;;;;;;;6.97;1.55;;;17.20;74.90;;;;;;4988303;28;20419;-78
2022/06/25 07:13:58;;;;;;;8.65;1.60;;;17.20;75.00;;;;;;4992653;28;20389;-79
2022/06/25 07:16:24;;;;;;;4.80;1.20;;;17.20;74.70;;;;;;4999271;28;20033;-83
2022/06/25 07:18:50;;;;;;;6.32;1.50;;;17.40;74.30;;;;;;4995230;28;20026;-78
2022/06/25 07:21:16;;;;;;;4.75;1.10;;;17.70;74.20;;;;;;4992137;28;20164;-78
2022/06/25 07:23:42;;;;;;;6.93;1.10;;;17.90;73.80;;;;;;4988395;28;20066;-78
2022/06/25 07:26:08;;;;;;;4.53;1.13;;;18.10;73.10;;;;;;4989615;28;20029;-78
2022/06/25 07:28:33;;;;;;;7.90;1.42;;;18.00;72.50;;;;;;5003137;28;20031;-79
2022/06/25 07:30:59;;;;;;;5.18;2.10;;;18.10;72.30;;;;;;4985790;28;20039;-79
2022/06/25 07:33:25;;;;;;;4.78;1.38;;;18.00;72.30;;;;;;4989229;28;20022;-78
2022/06/25 07:35:50;;;;;;;6.78;1.20;;;17.70;73.70;;;;;;4999059;28;20030;-78
2022/06/25 07:38:16;;;;;;;6.75;1.92;;;17.80;73.30;;;;;;4998978;28;20026;-78
2022/06/25 07:40:42;;;;;;;4.70;1.27;;;17.70;73.30;;;;;;4985274;28;20027;-78
2022/06/25 07:43:08;;;;;;;7.18;1.75;;;17.70;74.00;;;;;;5004999;28;20555;-78
2022/06/25 07:45:33;;;;;;;6.95;1.27;;;17.70;73.80;;;;;;4989428;28;20018;-78
2022/06/25 07:47:59;;;;;;;6.65;1.25;;;17.60;74.00;;;;;;4986826;28;20033;-78
2022/06/25 07:53:09;;;;;;;4.43;2.33;;;17.70;73.60;;;;;;4998739;28;20108;-78
2022/06/25 07:55:34;;;;;;;8.80;1.42;;;17.80;73.20;;;;;;4998582;28;20023;-77
2022/06/25 07:58:00;;;;;;;7.50;1.63;;;17.80;72.80;;;;;;4994071;28;20047;-78
2022/06/25 08:00:26;;;;;;;4.00;1.10;;;17.90;72.90;;;;;;4982440;28;20027;-77
2022/06/25 08:02:52;;;;;;;7.25;1.30;;;18.00;72.70;;;;;;4982931;28;20049;-78
2022/06/25 08:05:19;;;;;;;6.35;1.23;;;18.00;72.50;;;;;;4994478;28;20035;-77
2022/06/25 08:07:46;;;;;;;6.50;1.50;;;17.90;72.90;;;;;;4991631;28;20478;-78
2022/06/25 08:10:11;;;;;;;7.13;1.52;;;17.80;72.50;;;;;;4978974;28;20061;-78
2022/06/25 08:12:37;;;;;;;2.45;1.10;;;17.80;73.20;;;;;;4978647;28;20035;-78
2022/06/25 08:15:04;;;;;;;5.60;1.50;;;17.90;73.70;;;;;;4978711;28;20034;-78
2022/06/25 08:17:30;;;;;;;11.18;1.52;;;18.00;74.20;;;;;;4979014;28;20103;-79
2022/06/25 08:19:55;;;;;;;3.85;1.40;;;18.10;73.10;;;;;;4978153;28;20027;-79
2022/06/25 08:22:21;;;;;;;4.93;1.05;;;18.10;72.90;;;;;;4984671;28;20042;-80
2022/06/25 08:24:46;;;;;;;10.68;1.52;;;17.80;74.00;;;;;;4994136;28;20034;-79
2022/06/25 08:27:12;;;;;;;6.20;1.50;;;17.70;74.10;;;;;;4997654;28;20052;-78
2022/06/25 08:29:38;;;;;;;6.65;1.60;;;17.80;74.90;;;;;;4998013;28;20469;-78
2022/06/25 08:32:04;;;;;;;5.53;1.33;;;17.80;75.20;;;;;;4994635;28;20468;-78
2022/06/25 08:34:29;;;;;;;7.00;1.35;;;18.20;74.50;;;;;;4983140;28;20035;-81
2022/06/25 08:36:55;;;;;;;7.05;1.17;;;18.40;74.00;;;;;;4977422;28;20027;-79
2022/06/25 08:39:21;;;;;;;6.32;1.40;;;18.60;71.90;;;;;;4978639;28;20089;-79
2022/06/25 08:41:46;;;;;;;8.52;2.22;;;18.80;72.70;;;;;;4988230;28;20038;-79
2022/06/25 08:44:12;;;;;;;8.13;4.28;;;19.00;72.00;;;;;;4994712;28;20085;-79
2022/06/25 08:46:38;;;;;;;7.25;3.05;;;19.20;71.90;;;;;;4984352;28;20031;-79
2022/06/25 08:49:04;;;;;;;11.45;3.33;;;19.30;70.60;;;;;;4978211;28;20046;-78
2022/06/25 08:51:32;;;;;;;13.57;4.07;;;19.10;69.90;;;;;;4981827;28;20148;-81
2022/06/25 08:54:00;;;;;;;13.13;3.17;;;19.10;70.20;;;;;;4984486;28;20513;-80
2022/06/25 08:56:26;;;;;;;5.07;1.88;;;19.00;70.70;;;;;;4986096;28;20095;-78
2022/06/25 08:58:52;;;;;;;6.25;2.30;;;19.30;71.00;;;;;;4985344;28;20019;-78
2022/06/25 09:01:17;;;;;;;11.02;1.80;;;19.70;69.90;;;;;;4979894;28;20027;-79
2022/06/25 09:03:43;;;;;;;8.85;4.97;;;20.00;68.70;;;;;;4988368;28;20031;-79
2022/06/25 09:06:17;;;;;;;6.72;2.67;;;20.10;67.40;;;;;;4990272;28;20114;-79
2022/06/25 09:08:44;;;;;;;10.95;3.97;;;20.00;68.10;;;;;;4999467;28;20058;-79
2022/06/25 09:11:10;;;;;;;8.38;2.90;;;19.90;66.40;;;;;;4984516;28;20038;-79
2022/06/25 09:13:36;;;;;;;5.38;1.75;;;20.00;67.10;;;;;;4994836;28;20026;-76
2022/06/25 09:16:02;;;;;;;9.57;1.55;;;19.80;67.60;;;;;;4991272;28;20034;-77
2022/06/25 09:18:31;;;;;;;5.45;1.40;;;19.90;66.60;;;;;;4995019;28;20022;-78
2022/06/25 09:21:09;;;;;;;4.63;1.25;;;19.80;66.90;;;;;;4986365;28;20038;-79
2022/06/25 09:23:55;;;;;;;9.70;1.52;;;19.80;67.00;;;;;;4983723;28;20058;-83
2022/06/25 09:26:20;;;;;;;2.50;1.10;;;19.80;64.50;;;;;;4986098;28;20030;-83
2022/06/25 09:28:46;;;;;;;8.57;1.38;;;20.00;66.20;;;;;;4986318;28;20030;-83
2022/06/25 09:31:32;;;;;;;3.72;0.95;;;20.30;66.20;;;;;;4979805;28;20026;-82
2022/06/25 09:34:02;;;;;;;11.63;1.50;;;20.40;63.40;;;;;;4986995;28;20409;-84
2022/06/25 09:36:28;;;;;;;5.47;1.50;;;20.60;62.70;;;;;;4986159;28;20022;-80
2022/06/25 09:38:53;;;;;;;3.72;1.17;;;20.80;60.80;;;;;;4984361;28;20031;-81
2022/06/25 09:41:22;;;;;;;4.45;1.55;;;21.20;61.70;;;;;;4985772;28;20087;-80
2022/06/25 09:43:47;;;;;;;4.75;1.23;;;21.40;60.70;;;;;;4985679;28;20394;-78
2022/06/25 09:46:13;;;;;;;3.75;1.25;;;21.70;60.80;;;;;;4985783;28;20034;-83
2022/06/25 09:48:41;;;;;;;6.80;3.22;;;21.30;59.20;;;;;;4984032;28;20041;-83
2022/06/25 09:51:10;;;;;;;5.88;1.95;;;21.30;57.90;;;;;;4987530;28;20033;-80
2022/06/25 09:53:44;;;;;;;6.25;1.38;;;21.10;58.20;;;;;;4986941;28;20026;-82
2022/06/25 09:56:12;;;;;;;4.90;1.20;;;20.80;59.10;;;;;;4980025;28;20030;-82
2022/06/25 09:58:41;;;;;;;9.30;1.60;;;20.60;60.20;;;;;;4982852;28;20144;-85
2022/06/25 10:01:07;;;;;;;8.60;1.40;;;21.40;58.00;;;;;;4987465;28;20114;-80
2022/06/25 10:03:34;;;;;;;3.55;1.13;;;22.30;57.60;;;;;;4996484;28;20571;-83
2022/06/25 10:06:00;;;;;;;4.65;1.60;;;22.70;53.90;;;;;;4990333;28;20026;-79
2022/06/25 10:08:29;;;;;;;4.65;1.20;;;23.10;52.40;;;;;;5002066;28;20089;-80
2022/06/25 10:10:56;;;;;;;5.28;1.20;;;22.90;53.80;;;;;;4994074;28;20058;-80
2022/06/25 10:13:23;;;;;;;7.00;2.70;;;22.70;56.10;;;;;;4993798;28;20455;-81
2022/06/25 10:15:49;;;;;;;7.20;1.45;;;23.50;54.30;;;;;;5004210;28;20122;-81
2022/06/25 10:18:15;;;;;;;2.78;1.08;;;24.30;51.70;;;;;;4973021;28;20027;-79
2022/06/25 10:20:43;;;;;;;7.82;1.75;;;25.20;48.40;;;;;;4980441;28;20142;-81
2022/06/25 10:23:10;;;;;;;4.07;1.50;;;25.70;49.10;;;;;;4980519;28;20050;-80
2022/06/25 10:25:37;;;;;;;2.60;0.98;;;26.30;46.80;;;;;;4983345;28;20723;-81
2022/06/25 10:28:05;;;;;;;4.07;1.35;;;26.70;44.20;;;;;;4984980;28;20527;-81
2022/06/25 10:30:48;;;;;;;7.65;1.30;;;26.50;43.00;;;;;;4982956;28;20031;-81
2022/06/25 10:33:16;;;;;;;5.20;1.52;;;25.80;43.30;;;;;;4985724;28;20143;-81
2022/06/25 10:35:44;;;;;;;3.35;0.85;;;25.50;44.30;;;;;;4981231;28;20030;-81
2022/06/25 10:38:17;;;;;;;3.33;1.10;;;25.30;43.20;;;;;;4973960;28;20019;-80
2022/06/25 10:40:50;;;;;;;5.75;1.38;;;25.30;43.10;;;;;;4985631;28;20027;-80
2022/06/25 10:43:38;;;;;;;5.57;1.67;;;25.30;46.60;;;;;;4990981;28;20018;-80
2022/06/25 10:46:23;;;;;;;4.15;1.20;;;25.20;47.40;;;;;;5001999;28;20504;-80
2022/06/25 10:49:07;;;;;;;7.30;1.63;;;24.40;46.70;;;;;;4996304;28;20485;-80
2022/06/25 10:51:42;;;;;;;3.70;1.25;;;24.10;48.60;;;;;;4985003;28;20080;-80
2022/06/25 10:54:14;;;;;;;5.78;1.95;;;23.80;50.10;;;;;;4982276;28;20062;-80
2022/06/25 10:56:47;;;;;;;5.18;2.55;;;23.80;51.70;;;;;;4985202;28;20129;-80
2022/06/25 10:59:32;;;;;;;5.97;1.23;;;23.70;49.20;;;;;;4979052;28;20034;-80
2022/06/25 11:02:03;;;;;;;3.88;1.45;;;23.90;48.80;;;;;;4983501;28;20031;-80
2022/06/25 11:04:31;;;;;;;3.42;1.00;;;24.10;47.80;;;;;;4974863;28;20109;-80
2022/06/25 11:07:13;;;;;;;6.68;1.60;;;23.80;46.60;;;;;;4982510;28;20030;-89
2022/06/25 11:09:40;;;;;;;4.05;0.82;;;23.40;47.10;;;;;;4994012;28;20046;-82
2022/06/25 11:12:07;;;;;;;4.53;1.05;;;23.20;47.40;;;;;;4985849;28;20104;-83
2022/06/25 11:14:33;;;;;;;6.95;1.40;;;22.60;48.60;;;;;;4990419;28;20035;-79
2022/06/25 11:17:07;;;;;;;7.10;1.15;;;22.30;50.30;;;;;;4977343;28;20549;-79
2022/06/25 11:19:33;;;;;;;5.95;1.58;;;21.80;51.80;;;;;;4985348;28;20030;-84
2022/06/25 11:22:02;;;;;;;4.63;1.63;;;21.60;54.80;;;;;;4984605;28;20039;-77
2022/06/25 11:24:29;;;;;;;3.55;1.40;;;21.20;56.70;;;;;;4997912;28;20018;-78
2022/06/25 11:29:48;;;;;;;;;;;20.90;59.10;;;;;;4989043;28;20038;-79
2022/06/25 11:32:20;;;;;;;4.22;1.50;;;21.00;59.40;;;;;;4975609;28;19921;-78
2022/06/25 11:34:54;;;;;;;2.33;1.20;;;20.80;60.90;;;;;;4974361;28;20035;-80
2022/06/25 11:37:21;;;;;;;4.25;1.52;;;20.90;61.60;;;;;;4976284;28;20023;-77
2022/06/25 11:39:47;;;;;;;6.50;1.42;;;20.90;62.00;;;;;;4976113;28;20033;-78
2022/06/25 11:42:14;;;;;;;4.75;1.30;;;21.00;62.60;;;;;;4976042;28;20027;-79
2022/06/25 11:44:49;;;;;;;3.05;1.00;;;21.30;59.20;;;;;;4976145;28;20030;-78
2022/06/25 11:47:19;;;;;;;4.40;1.45;;;21.20;59.40;;;;;;4995210;28;20468;-80
2022/06/25 11:49:45;;;;;;;2.83;1.08;;;21.20;60.30;;;;;;4995656;28;20045;-83
2022/06/25 11:52:12;;;;;;;5.47;1.15;;;21.60;57.50;;;;;;4995905;28;20018;-87
2022/06/25 11:54:40;;;;;;;2.17;1.08;;;21.60;55.30;;;;;;4982027;28;20026;-80
2022/06/25 11:57:08;;;;;;;4.78;1.50;;;21.70;56.10;;;;;;4979547;28;20517;-81
2022/06/25 11:59:36;;;;;;;4.10;1.40;;;21.70;55.40;;;;;;4973168;28;20030;-80
2022/06/25 12:02:06;;;;;;;4.22;1.10;;;21.80;55.40;;;;;;5002848;28;20041;-80
2022/06/25 12:04:44;;;;;;;;;;;22.30;56.00;;;;;;4983245;28;20030;-81
2022/06/25 12:07:17;;;;;;;4.55;1.30;;;22.10;53.50;;;;;;4985211;28;20289;-80
2022/06/25 12:09:43;;;;;;;5.07;1.30;;;21.80;54.40;;;;;;4996595;28;20106;-80
2022/06/25 12:12:09;;;;;;;3.58;1.90;;;22.10;55.00;;;;;;4981887;28;20027;-80
2022/06/25 12:14:36;;;;;;;3.10;1.20;;;22.30;53.80;;;;;;4982011;28;20023;-80
2022/06/25 12:17:05;;;;;;;5.43;1.30;;;22.40;54.50;;;;;;4980233;28;20409;-80
2022/06/25 12:19:49;;;;;;;3.25;1.13;;;22.20;52.90;;;;;;4980941;28;20019;-80
2022/06/25 12:22:27;;;;;;;6.97;1.33;;;21.90;52.30;;;;;;4998104;28;20788;-80
2022/06/25 12:24:58;;;;;;;5.00;1.30;;;22.10;52.90;;;;;;4982382;28;20030;-80
2022/06/25 12:27:25;;;;;;;4.53;1.33;;;22.30;52.80;;;;;;4984045;28;20043;-80
2022/06/25 12:29:53;;;;;;;5.32;1.38;;;22.40;52.00;;;;;;4998361;28;20023;-80
2022/06/25 12:32:19;;;;;;;4.60;1.33;;;22.40;53.30;;;;;;4980598;28;20026;-80
2022/06/25 12:34:47;;;;;;;4.47;1.13;;;22.40;52.80;;;;;;4982455;28;20433;-80
2022/06/25 12:37:29;;;;;;;4.60;1.35;;;22.60;52.00;;;;;;4982378;28;20399;-80
2022/06/25 12:39:59;;;;;;;4.20;1.17;;;22.30;51.70;;;;;;4982148;28;20031;-80
2022/06/25 12:42:28;;;;;;;5.25;1.40;;;22.00;52.50;;;;;;4984397;28;20535;-80
2022/06/25 12:44:55;;;;;;;3.72;1.25;;;22.20;52.80;;;;;;5000932;28;20035;-80
2022/06/25 12:47:21;;;;;;;7.53;1.20;;;22.20;52.70;;;;;;4982443;28;20119;-79
2022/06/25 12:49:55;;;;;;;2.60;1.33;;;22.10;51.10;;;;;;4982312;28;20031;-76
2022/06/25 12:52:26;;;;;;;7.80;1.10;;;22.10;51.30;;;;;;4992500;28;20038;-79
2022/06/25 12:54:54;;;;;;;4.75;1.65;;;22.30;51.70;;;;;;4989726;28;20034;-79
2022/06/25 12:57:27;;;;;;;5.90;1.63;;;22.40;52.40;;;;;;4984534;28;20066;-79
2022/06/25 12:59:53;;;;;;;5.90;1.30;;;22.80;51.10;;;;;;5003648;28;20026;-79
2022/06/25 13:02:20;;;;;;;6.97;1.50;;;22.80;50.80;;;;;;4988572;28;20022;-78
2022/06/25 13:04:47;;;;;;;5.15;1.33;;;23.30;50.50;;;;;;4981893;28;20026;-78